createdAt,value
2016-06-04T00:00:49.560Z,90.18
2016-06-04T00:01:49.531Z,90.18
2016-06-04T00:02:49.549Z,90.37
2016-06-04T00:03:49.553Z,90.18
2016-06-04T00:04:49.539Z,90.47
2016-06-04T00:05:49.605Z,90.08
2016-06-04T00:06:49.561Z,89.7
2016-06-04T00:07:49.579Z,89.89
2016-06-04T00:08:49.566Z,89.41
2016-06-04T00:10:02.303Z,89.32
2016-06-04T00:11:08.774Z,89.7
2016-06-04T00:11:49.792Z,89.7
2016-06-04T00:12:49.577Z,89.12
2016-06-04T00:13:49.595Z,88.84
2016-06-04T00:14:49.582Z,88.74
2016-06-04T00:15:49.600Z,88.65
2016-06-04T00:16:49.587Z,88.35
2016-06-04T00:17:49.590Z,88.55
2016-06-04T00:18:49.592Z,88.74
2016-06-04T00:19:49.612Z,88.45
2016-06-04T00:20:49.582Z,88.07
2016-06-04T00:21:49.601Z,88.26
2016-06-04T00:22:49.603Z,88.45
2016-06-04T00:23:49.606Z,88.55
2016-06-04T00:24:49.625Z,88.17
2016-06-04T00:25:49.581Z,87.88
2016-06-04T00:27:08.817Z,87.88
2016-06-04T00:27:49.632Z,88.65
2016-06-04T00:28:49.479Z,88.45
2016-06-04T00:29:49.638Z,88.45
2016-06-04T00:30:49.641Z,87.78
2016-06-04T00:31:49.643Z,88.45
2016-06-04T00:32:49.708Z,88.74
2016-06-04T00:33:49.633Z,88.55
2016-06-04T00:34:49.636Z,88.55
2016-06-04T00:35:49.638Z,88.26
2016-06-04T00:36:49.641Z,88.55
2016-06-04T00:37:49.644Z,88.93
2016-06-04T00:38:49.647Z,88.65
2016-06-04T00:39:49.649Z,88.55
2016-06-04T00:40:50.011Z,88.84
2016-06-04T00:41:49.749Z,88.74
2016-06-04T00:42:49.813Z,88.65
2016-06-04T00:43:49.676Z,89.12
2016-06-04T00:44:49.787Z,88.93
2016-06-04T00:45:49.666Z,89.12
2016-06-04T00:46:49.684Z,89.51
2016-06-04T00:47:49.702Z,89.32
2016-06-04T00:48:49.704Z,89.12
2016-06-04T00:49:49.692Z,89.51
2016-06-04T00:50:49.695Z,88.84
2016-06-04T00:51:49.681Z,89.32
2016-06-04T00:52:49.685Z,89.32
2016-06-04T00:53:49.703Z,89.22
2016-06-04T00:54:49.689Z,89.32
2016-06-04T00:55:49.708Z,89.32
2016-06-04T00:56:49.726Z,89.41
2016-06-04T00:58:08.917Z,89.32
2016-06-04T00:58:49.728Z,89.61
2016-06-04T00:59:49.749Z,89.51
2016-06-04T01:00:49.784Z,89.7
2016-06-04T01:01:49.821Z,89.99
2016-06-04T01:02:49.857Z,89.99
2016-06-04T01:03:49.901Z,90.28
2016-06-04T01:04:49.916Z,90.61
2016-06-04T01:05:49.931Z,90.47
2016-06-04T01:06:49.929Z,90.71
2016-06-04T01:07:49.944Z,91.19
2016-06-04T01:08:49.986Z,91.09
2016-06-04T01:09:49.962Z,91.14
2016-06-04T01:10:50.016Z,91.19
2016-06-04T01:11:50.382Z,90.42
2016-06-04T01:12:49.999Z,89.85
2016-06-04T01:13:50.005Z,90.23
2016-06-04T01:15:09.212Z,90.33
2016-06-04T01:15:50.013Z,90.42
2016-06-04T01:16:50.095Z,89.85
2016-06-04T01:17:50.037Z,89.51
2016-06-04T01:18:50.009Z,89.47
2016-06-04T01:19:50.106Z,89.65
2016-06-04T01:20:50.047Z,89.27
2016-06-04T01:22:09.238Z,89.47
2016-06-04T01:22:50.038Z,89.37
2016-06-04T01:23:50.041Z,89.32
2016-06-04T01:24:50.044Z,89.37
2016-06-04T01:25:50.047Z,89.32
2016-06-04T01:26:50.706Z,89.27
2016-06-04T01:27:50.053Z,89.22
2016-06-04T01:28:50.056Z,89.37
2016-06-04T01:29:50.043Z,89.37
2016-06-04T01:30:50.062Z,89.41
2016-06-04T01:31:50.048Z,89.32
2016-06-04T01:32:50.051Z,89.32
2016-06-04T01:33:50.069Z,88.93
2016-06-04T01:34:50.073Z,89.32
2016-06-04T01:35:50.059Z,89.51
2016-06-04T01:36:50.078Z,89.61
2016-06-04T01:37:50.081Z,90.08
2016-06-04T01:38:50.098Z,90.08
2016-06-04T01:39:50.101Z,90.08
2016-06-04T01:40:50.339Z,90.08
2016-06-04T01:41:50.153Z,90.56
2016-06-04T01:42:50.141Z,90.33
2016-06-04T01:43:50.097Z,90.33
2016-06-04T01:44:50.099Z,90.42
2016-06-04T01:45:50.086Z,90.52
2016-06-04T01:46:50.089Z,91.19
2016-06-04T01:47:50.108Z,91.14
2016-06-04T01:48:50.110Z,90.75
2016-06-04T01:49:50.113Z,91.19
2016-06-04T01:50:50.130Z,91.96
2016-06-04T01:51:50.133Z,91.57
2016-06-04T01:53:09.324Z,91.86
2016-06-04T01:53:50.138Z,91.57
2016-06-04T01:54:50.126Z,91.77
2016-06-04T01:55:50.129Z,92.15
2016-06-04T01:56:50.444Z,91.86
2016-06-04T01:57:50.119Z,92.05
2016-06-04T01:58:50.137Z,91.96
2016-06-04T01:59:50.139Z,92.05
2016-06-04T02:00:50.158Z,91.86
2016-06-04T02:01:50.145Z,91.96
2016-06-04T02:02:50.162Z,92.15
2016-06-04T02:03:50.151Z,92.24
2016-06-04T02:04:50.153Z,91.77
2016-06-04T02:05:50.217Z,91.67
2016-06-04T02:06:50.159Z,91.48
2016-06-04T02:07:50.192Z,91.48
2016-06-04T02:08:50.163Z,91.57
2016-06-04T02:09:50.167Z,91.38
2016-06-04T02:10:50.576Z,91.38
2016-06-04T02:11:50.202Z,91.09
2016-06-04T02:12:50.206Z,91
2016-06-04T02:13:50.177Z,91
2016-06-04T02:14:50.195Z,90.9
2016-06-04T02:15:50.197Z,91.19
2016-06-04T02:17:09.388Z,91.09
2016-06-04T02:17:50.031Z,91.28
2016-06-04T02:18:50.191Z,91.57
2016-06-04T02:19:50.193Z,91.86
2016-06-04T02:20:50.211Z,92.15
2016-06-04T02:21:50.199Z,91.86
2016-06-04T02:22:50.217Z,91.86
2016-06-04T02:23:50.189Z,91.57
2016-06-04T02:24:50.207Z,92.3
2016-06-04T02:25:50.240Z,92.58
2016-06-04T02:26:50.243Z,92.54
2016-06-04T02:28:09.402Z,92.49
2016-06-04T02:28:50.217Z,92.72
2016-06-04T02:29:50.204Z,92.54
2016-06-04T02:30:50.207Z,92.34
2016-06-04T02:31:50.241Z,92.3
2016-06-04T02:32:50.228Z,92.2
2016-06-04T02:33:50.262Z,92.3
2016-06-04T02:34:50.218Z,92.58
2016-06-04T02:36:09.424Z,92.49
2016-06-04T02:36:50.239Z,92.39
2016-06-04T02:37:50.241Z,92.39
2016-06-04T02:38:50.245Z,92.54
2016-06-04T02:39:50.247Z,92.2
2016-06-04T02:40:50.484Z,92.39
2016-06-04T02:41:51.253Z,91.77
2016-06-04T02:42:50.458Z,91.86
2016-06-04T02:43:50.258Z,92.05
2016-06-04T02:44:50.292Z,91.57
2016-06-04T02:45:50.263Z,91.57
2016-06-04T02:47:09.469Z,91.77
2016-06-04T02:47:50.283Z,91.77
2016-06-04T02:48:50.271Z,91.77
2016-06-04T02:49:50.274Z,91.86
2016-06-04T02:50:50.277Z,91.57
2016-06-04T02:51:50.263Z,91.57
2016-06-04T02:52:50.297Z,91.48
2016-06-04T02:53:50.300Z,91.57
2016-06-04T02:54:50.272Z,91.67
2016-06-04T02:55:50.290Z,91.86
2016-06-04T02:56:50.386Z,91.96
2016-06-04T02:57:50.310Z,91.77
2016-06-04T02:58:50.298Z,91.96
2016-06-04T02:59:50.285Z,91.96
2016-06-04T03:00:50.304Z,91.48
2016-06-04T03:01:50.306Z,91.86
2016-06-04T03:02:50.184Z,91.63
2016-06-04T03:04:09.515Z,91.86
2016-06-04T03:04:50.315Z,92.68
2016-06-04T03:05:50.301Z,92.58
2016-06-04T03:06:50.304Z,92.87
2016-06-04T03:07:50.307Z,92.68
2016-06-04T03:08:50.309Z,92.3
2016-06-04T03:09:50.328Z,92.49
2016-06-04T03:10:50.314Z,93.35
2016-06-04T03:11:50.630Z,93.16
2016-06-04T03:12:50.320Z,93.16
2016-06-04T03:13:50.339Z,92.58
2016-06-04T03:14:50.325Z,92.87
2016-06-04T03:15:50.344Z,92.87
2016-06-04T03:16:50.347Z,93.06
2016-06-04T03:17:50.333Z,93.54
2016-06-04T03:18:50.337Z,92.77
2016-06-04T03:19:50.323Z,93.73
2016-06-04T03:20:50.341Z,93.73
2016-06-04T03:21:50.345Z,93.35
2016-06-04T03:22:50.347Z,93.16
2016-06-04T03:23:50.350Z,93.83
2016-06-04T03:24:50.352Z,93.44
2016-06-04T03:25:50.371Z,93.35
2016-06-04T03:26:50.608Z,93.35
2016-06-04T03:27:50.345Z,93.44
2016-06-04T03:28:50.363Z,93.63
2016-06-04T03:29:50.350Z,93.63
2016-06-04T03:31:03.103Z,93.63
2016-06-04T03:32:03.122Z,93.26
2016-06-04T03:32:50.389Z,93.06
2016-06-04T03:33:50.377Z,93.06
2016-06-04T03:34:50.395Z,92.58
2016-06-04T03:35:50.382Z,93.35
2016-06-04T03:36:50.400Z,92.77
2016-06-04T03:37:50.403Z,92.68
2016-06-04T03:38:50.421Z,92.58
2016-06-04T03:39:50.377Z,92.68
2016-06-04T03:40:50.614Z,92.58
2016-06-04T03:41:50.398Z,92.34
2016-06-04T03:42:50.447Z,91.53
2016-06-04T03:43:50.387Z,91.96
2016-06-04T03:44:50.406Z,92.1
2016-06-04T03:45:50.409Z,92.01
2016-06-04T03:46:50.412Z,91.86
2016-06-04T03:47:50.398Z,91.86
2016-06-04T03:48:50.401Z,91.19
2016-06-04T03:49:50.435Z,90.9
2016-06-04T03:50:50.422Z,91
2016-06-04T03:51:50.424Z,90.23
2016-06-04T03:52:50.491Z,90.52
2016-06-04T03:53:50.493Z,90.04
2016-06-04T03:54:50.433Z,90.14
2016-06-04T03:55:50.419Z,89.37
2016-06-04T03:56:51.063Z,89.41
2016-06-04T03:57:50.457Z,89.03
2016-06-04T03:58:50.428Z,89.51
2016-06-04T03:59:50.430Z,89.51
2016-06-04T04:00:50.433Z,89.03
2016-06-04T04:01:50.452Z,88.65
2016-06-04T04:02:50.471Z,89.12
2016-06-04T04:03:50.441Z,88.74
2016-06-04T04:04:50.523Z,88.74
2016-06-04T04:05:50.463Z,89.12
2016-06-04T04:06:50.465Z,88.07
2016-06-04T04:07:50.452Z,88.35
2016-06-04T04:08:50.486Z,87.78
2016-06-04T04:09:50.473Z,88.55
2016-06-04T04:11:10.179Z,87.78
2016-06-04T04:11:50.510Z,87.4
2016-06-04T04:12:50.512Z,87.68
2016-06-04T04:13:50.515Z,87.68
2016-06-04T04:14:50.503Z,87.78
2016-06-04T04:15:50.473Z,87.68
2016-06-04T04:16:50.476Z,87.78
2016-06-04T04:17:50.479Z,87.68
2016-06-04T04:18:50.497Z,87.68
2016-06-04T04:19:50.484Z,88.65
2016-06-04T04:20:50.519Z,88.26
2016-06-04T04:21:50.506Z,88.07
2016-06-04T04:22:50.508Z,88.17
2016-06-04T04:23:50.492Z,88.07
2016-06-04T04:24:50.511Z,88.07
2016-06-04T04:25:51.236Z,88.07
2016-06-04T04:26:50.517Z,88.45
2016-06-04T04:27:50.519Z,88.55
2016-06-04T04:28:50.522Z,88.35
2016-06-04T04:29:50.509Z,88.45
2016-06-04T04:30:50.511Z,88.26
2016-06-04T04:31:50.545Z,88.35
2016-06-04T04:32:50.516Z,89.12
2016-06-04T04:33:50.519Z,88.17
2016-06-04T04:34:50.538Z,88.74
2016-06-04T04:35:50.540Z,88.65
2016-06-04T04:36:50.543Z,88.65
2016-06-04T04:37:50.546Z,88.55
2016-06-04T04:38:50.548Z,88.65
2016-06-04T04:40:03.288Z,88.65
2016-06-04T04:40:50.960Z,88.65
2016-06-04T04:41:51.088Z,87.98
2016-06-04T04:42:50.700Z,88.65
2016-06-04T04:43:50.578Z,88.35
2016-06-04T04:44:50.581Z,88.65
2016-06-04T04:45:50.568Z,88.45
2016-06-04T04:46:50.586Z,87.78
2016-06-04T04:47:50.573Z,88.07
2016-06-04T04:48:50.575Z,87.98
2016-06-04T04:49:50.594Z,88.17
2016-06-04T04:50:50.597Z,88.55
2016-06-04T04:51:50.600Z,88.55
2016-06-04T04:52:50.586Z,88.55
2016-06-04T04:53:50.589Z,88.74
2016-06-04T04:54:50.592Z,88.35
2016-06-04T04:55:50.611Z,88.55
2016-06-04T04:56:51.019Z,88.84
2016-06-04T04:57:50.615Z,88.35
2016-06-04T04:58:50.603Z,88.45
2016-06-04T04:59:50.605Z,88.45
2016-06-04T05:00:50.607Z,88.74
2016-06-04T05:01:50.626Z,88.65
2016-06-04T05:02:50.629Z,88.93
2016-06-04T05:03:50.616Z,88.89
2016-06-04T05:05:09.855Z,88.98
2016-06-04T05:05:50.621Z,89.12
2016-06-04T05:06:50.640Z,88.65
2016-06-04T05:07:50.486Z,89.03
2016-06-04T05:08:50.645Z,88.74
2016-06-04T05:09:50.648Z,88.45
2016-06-04T05:10:50.948Z,88.07
2016-06-04T05:11:51.121Z,87.88
2016-06-04T05:12:50.671Z,88.84
2016-06-04T05:13:50.659Z,87.4
2016-06-04T05:14:50.662Z,89.22
2016-06-04T05:15:50.648Z,88.74
2016-06-04T05:16:50.650Z,88.74
2016-06-04T05:17:50.654Z,88.55
2016-06-04T05:18:50.656Z,88.35
2016-06-04T05:19:50.768Z,88.74
2016-06-04T05:20:50.678Z,88.65
2016-06-04T05:21:50.681Z,88.93
2016-06-04T05:22:50.683Z,88.74
2016-06-04T05:23:50.669Z,88.74
2016-06-04T05:24:50.673Z,88.55
2016-06-04T05:25:50.691Z,88.55
2016-06-04T05:26:50.694Z,88.65
2016-06-04T05:27:50.680Z,88.55
2016-06-04T05:28:50.683Z,88.55
2016-06-04T05:29:50.686Z,88.55
2016-06-04T05:30:50.688Z,88.55
2016-06-04T05:31:50.707Z,88.74
2016-06-04T05:32:50.725Z,88.26
2016-06-04T05:33:50.697Z,88.55
2016-06-04T05:34:50.715Z,88.17
2016-06-04T05:35:50.702Z,88.55
2016-06-04T05:37:03.458Z,88.65
2016-06-04T05:37:57.007Z,88.45
2016-06-04T05:38:50.710Z,88.26
2016-06-04T05:39:50.744Z,88.55
2016-06-04T05:40:50.732Z,88.4
2016-06-04T05:41:51.781Z,87.63
2016-06-04T05:42:50.784Z,87.82
2016-06-04T05:43:50.754Z,88.02
2016-06-04T05:44:50.757Z,87.25
2016-06-04T05:45:50.745Z,87.44
2016-06-04T05:46:50.762Z,86.87
2016-06-04T05:47:50.750Z,86.68
2016-06-04T05:48:50.753Z,86.1
2016-06-04T05:49:50.740Z,86.29
2016-06-04T05:50:50.758Z,86.19
2016-06-04T05:51:50.745Z,85.52
2016-06-04T05:53:09.969Z,85.57
2016-06-04T05:53:50.781Z,85.37
2016-06-04T05:54:50.769Z,84.99
2016-06-04T05:55:51.022Z,85.08
2016-06-04T05:56:50.774Z,85.08
2016-06-04T05:57:50.620Z,85.08
2016-06-04T05:58:50.795Z,85.28
2016-06-04T05:59:50.783Z,85.08
2016-06-04T06:00:50.785Z,85.08
2016-06-04T06:01:50.819Z,84.8
2016-06-04T06:02:50.899Z,84.99
2016-06-04T06:03:50.794Z,84.89
2016-06-04T06:04:50.796Z,84.7
2016-06-04T06:05:50.799Z,84.99
2016-06-04T06:06:50.816Z,84.89
2016-06-04T06:07:50.804Z,84.89
2016-06-04T06:08:50.806Z,84.89
2016-06-04T06:09:50.824Z,85.47
2016-06-04T06:11:10.518Z,85.52
2016-06-04T06:11:50.846Z,85.66
2016-06-04T06:12:50.832Z,85.52
2016-06-04T06:13:50.867Z,85.52
2016-06-04T06:14:50.854Z,85.33
2016-06-04T06:15:50.857Z,85.71
2016-06-04T06:16:50.843Z,85.52
2016-06-04T06:17:50.862Z,85.91
2016-06-04T06:18:50.849Z,85.62
2016-06-04T06:19:50.883Z,86.24
2016-06-04T06:20:50.870Z,86.43
2016-06-04T06:21:50.857Z,86.58
2016-06-04T06:23:03.612Z,87.15
2016-06-04T06:23:50.894Z,86.68
2016-06-04T06:24:50.864Z,86.68
2016-06-04T06:25:50.883Z,86.77
2016-06-04T06:26:50.949Z,87.25
2016-06-04T06:27:50.905Z,87.15
2016-06-04T06:28:50.891Z,87.82
2016-06-04T06:29:50.894Z,87.44
2016-06-04T06:30:50.913Z,87.54
2016-06-04T06:31:50.899Z,87.82
2016-06-04T06:32:50.918Z,87.63
2016-06-04T06:33:50.921Z,87.82
2016-06-04T06:34:50.924Z,87.44
2016-06-04T06:35:50.941Z,86.96
2016-06-04T06:36:50.929Z,86.96
2016-06-04T06:37:50.932Z,86.58
2016-06-04T06:38:50.949Z,86.81
2016-06-04T06:39:50.937Z,87.1
2016-06-04T06:40:51.111Z,86.19
2016-06-04T06:41:51.254Z,87.01
2016-06-04T06:42:50.991Z,85.95
2016-06-04T06:43:50.948Z,85.95
2016-06-04T06:44:50.934Z,86.43
2016-06-04T06:45:51.062Z,86.05
2016-06-04T06:46:50.956Z,85.66
2016-06-04T06:47:50.974Z,85.66
2016-06-04T06:48:50.961Z,85.95
2016-06-04T06:50:10.153Z,85.18
2016-06-04T06:50:50.966Z,85.08
2016-06-04T06:51:50.954Z,85.47
2016-06-04T06:52:50.972Z,85.95
2016-06-04T06:53:50.975Z,86.52
2016-06-04T06:54:50.992Z,87.01
2016-06-04T06:55:50.823Z,86.81
2016-06-04T06:56:50.983Z,87.1
2016-06-04T06:57:50.985Z,87.96
2016-06-04T06:58:50.988Z,87.77
2016-06-04T06:59:51.006Z,87.68
2016-06-04T07:00:50.994Z,87.87
2016-06-04T07:01:50.997Z,88.25
2016-06-04T07:02:51.030Z,87.68
2016-06-04T07:03:51.002Z,87.87
2016-06-04T07:04:51.019Z,87.39
2016-06-04T07:05:51.022Z,86.62
2016-06-04T07:06:51.025Z,86.52
2016-06-04T07:07:51.028Z,86.66
2016-06-04T07:08:51.061Z,86.47
2016-06-04T07:09:51.032Z,85.89
2016-06-04T07:10:51.191Z,85.99
2016-06-04T07:11:51.679Z,85.71
2016-06-04T07:13:10.090Z,85.61
2016-06-04T07:13:51.028Z,85.41
2016-06-04T07:14:51.047Z,85.32
2016-06-04T07:15:51.049Z,85.03
2016-06-04T07:16:51.051Z,84.17
2016-06-04T07:17:51.085Z,83.87
2016-06-04T07:18:50.901Z,84.36
2016-06-04T07:19:51.076Z,84.74
2016-06-04T07:20:51.078Z,84.36
2016-06-04T07:21:51.081Z,83.97
2016-06-04T07:22:51.099Z,84.26
2016-06-04T07:23:51.102Z,83.59
2016-06-04T07:24:51.104Z,83.4
2016-06-04T07:25:51.185Z,83.01
2016-06-04T07:26:51.095Z,82.73
2016-06-04T07:28:10.319Z,82.96
2016-06-04T07:28:51.115Z,82.92
2016-06-04T07:29:51.118Z,82.19
2016-06-04T07:30:51.105Z,82.19
2016-06-04T07:31:51.108Z,81.52
2016-06-04T07:32:51.110Z,81.13
2016-06-04T07:33:51.113Z,81.71
2016-06-04T07:34:51.131Z,81.23
2016-06-04T07:35:51.150Z,81.52
2016-06-04T07:36:51.136Z,80.84
2016-06-04T07:37:51.139Z,80.94
2016-06-04T07:38:51.142Z,80.36
2016-06-04T07:40:10.366Z,80.65
2016-06-04T07:40:51.147Z,80.36
2016-06-04T07:41:51.447Z,80.65
2016-06-04T07:42:51.153Z,80.75
2016-06-04T07:43:51.172Z,80.94
2016-06-04T07:44:51.158Z,81.23
2016-06-04T07:46:10.382Z,80.65
2016-06-04T07:46:51.179Z,80.75
2016-06-04T07:47:51.198Z,80.94
2016-06-04T07:48:51.185Z,81.13
2016-06-04T07:49:51.187Z,80.99
2016-06-04T07:50:51.190Z,82.09
2016-06-04T07:51:51.193Z,82.19
2016-06-04T07:52:51.211Z,81.99
2016-06-04T07:53:51.198Z,81.52
2016-06-04T07:54:51.216Z,81.52
2016-06-04T07:55:51.235Z,81.23
2016-06-04T07:56:51.269Z,80.46
2016-06-04T07:57:51.225Z,79.98
2016-06-04T07:58:51.228Z,80.07
2016-06-04T07:59:51.230Z,79.73
2016-06-04T08:00:51.217Z,79.73
2016-06-04T08:01:51.267Z,79.44
2016-06-04T08:02:51.081Z,80.02
2016-06-04T08:03:51.256Z,78.83
2016-06-04T08:04:51.244Z,79.35
2016-06-04T08:05:51.261Z,78.96
2016-06-04T08:06:51.264Z,78.67
2016-06-04T08:07:51.267Z,78.38
2016-06-04T08:08:51.270Z,77.9
2016-06-04T08:09:57.538Z,78.38
2016-06-04T08:10:51.275Z,77.65
2016-06-04T08:11:51.309Z,77.56
2016-06-04T08:12:51.280Z,76.98
2016-06-04T08:13:51.315Z,76.88
2016-06-04T08:14:51.301Z,76.69
2016-06-04T08:15:51.289Z,75.44
2016-06-04T08:16:51.307Z,75.44
2016-06-04T08:17:51.310Z,75.54
2016-06-04T08:18:51.312Z,75.05
2016-06-04T08:19:51.331Z,74.48
2016-06-04T08:20:51.318Z,73.94
2016-06-04T08:21:51.179Z,74.03
2016-06-04T08:22:51.354Z,72.97
2016-06-04T08:23:51.372Z,72.2
2016-06-04T08:25:04.081Z,72.11
2016-06-04T08:25:52.018Z,72.14
2016-06-04T08:26:51.521Z,71.18
2016-06-04T08:27:51.353Z,70.98
2016-06-04T08:28:51.386Z,70.15
2016-06-04T08:29:51.233Z,69.96
2016-06-04T08:30:51.375Z,70.06
2016-06-04T08:31:51.378Z,69.87
2016-06-04T08:32:51.381Z,69.32
2016-06-04T08:33:51.383Z,69.32
2016-06-04T08:34:51.403Z,68.45
2016-06-04T08:35:51.405Z,67.49
2016-06-04T08:36:51.422Z,67.23
2016-06-04T08:37:51.441Z,67.62
2016-06-04T08:38:51.413Z,67.14
2016-06-04T08:39:51.415Z,66.3
2016-06-04T08:40:51.418Z,65.53
2016-06-04T08:41:51.421Z,65.14
2016-06-04T08:42:54.798Z,64.86
2016-06-04T08:43:51.457Z,65.53
2016-06-04T08:44:51.477Z,65.05
2016-06-04T08:45:51.447Z,65.24
2016-06-04T08:46:51.466Z,64.18
2016-06-04T08:47:51.484Z,64.01
2016-06-04T08:48:51.487Z,64.37
2016-06-04T08:49:51.490Z,64.28
2016-06-04T08:50:51.507Z,64.11
2016-06-04T08:51:51.510Z,63.73
2016-06-04T08:52:51.513Z,63.73
2016-06-04T08:53:51.531Z,63.73
2016-06-04T08:54:51.518Z,63.92
2016-06-04T08:55:51.537Z,64.21
2016-06-04T08:56:51.555Z,63.82
2016-06-04T08:57:55.308Z,63.73
2016-06-04T08:58:51.826Z,63.43
2016-06-04T08:59:51.563Z,62.5
2016-06-04T09:00:51.597Z,60.96
2016-06-04T09:01:51.584Z,60.86
2016-06-04T09:03:04.167Z,61.34
2016-06-04T09:03:51.589Z,60.02
2016-06-04T09:04:51.608Z,60.5
2016-06-04T09:05:51.611Z,59.44
2016-06-04T09:06:51.614Z,58.98
2016-06-04T09:07:51.600Z,57.44
2016-06-04T09:08:51.634Z,57.08
2016-06-04T09:09:51.637Z,57.37
2016-06-04T09:11:04.377Z,57.56
2016-06-04T09:11:51.830Z,57.82
2016-06-04T09:12:52.239Z,57.76
2016-06-04T09:13:51.663Z,57.82
2016-06-04T09:14:51.541Z,57.82
2016-06-04T09:15:51.668Z,57.76
2016-06-04T09:17:04.440Z,56.7
2016-06-04T09:17:51.674Z,57.18
2016-06-04T09:18:51.692Z,56.88
2016-06-04T09:19:51.711Z,56.7
2016-06-04T09:20:51.713Z,56.3
2016-06-04T09:21:51.732Z,57.05
2016-06-04T09:23:04.456Z,56.95
2016-06-04T09:23:51.612Z,57.05
2016-06-04T09:24:51.756Z,57.44
2016-06-04T09:25:51.774Z,57.79
2016-06-04T09:26:51.776Z,58.18
2016-06-04T09:27:51.779Z,58.73
2016-06-04T09:29:10.832Z,60.28
2016-06-04T09:29:51.785Z,60.64
2016-06-04T09:30:51.803Z,61.51
2016-06-04T09:31:51.805Z,63.6
2016-06-04T09:32:51.808Z,67.27
2016-06-04T09:33:51.827Z,68.59
2016-06-04T09:35:11.020Z,70.03
2016-06-04T09:35:51.832Z,71.64
2016-06-04T09:36:51.850Z,71.83
2016-06-04T09:37:51.837Z,73.33
2016-06-04T09:38:51.856Z,73.91
2016-06-04T09:39:51.842Z,74.3
2016-06-04T09:40:51.845Z,74.16
2016-06-04T09:41:51.864Z,76.76
2016-06-04T09:42:51.883Z,76.86
2016-06-04T09:43:51.885Z,76.67
2016-06-04T09:44:51.888Z,75.03
2016-06-04T09:45:51.874Z,71.12
2016-06-04T09:46:51.893Z,72.56
2016-06-04T09:47:51.896Z,70.54
2016-06-04T09:48:51.898Z,71.7
2016-06-04T09:50:04.654Z,71.12
2016-06-04T09:50:51.904Z,69.19
2016-06-04T09:51:51.922Z,67.94
2016-06-04T09:52:51.924Z,65.08
2016-06-04T09:53:51.926Z,67.58
2016-06-04T09:55:11.135Z,70.8
2016-06-04T09:55:51.948Z,69.71
2016-06-04T09:56:51.967Z,70.22
2016-06-04T09:57:51.984Z,69.9
2016-06-04T09:58:52.066Z,73.08
2016-06-04T09:59:51.959Z,74.49
2016-06-04T10:00:51.993Z,76.13
2016-06-04T10:01:51.980Z,74.49
2016-06-04T10:02:58.248Z,73.88
2016-06-04T10:03:51.986Z,75.23
2016-06-04T10:04:52.020Z,74.55
2016-06-04T10:05:52.023Z,76.44
2016-06-04T10:06:52.039Z,75.57
2016-06-04T10:07:52.069Z,75.76
2016-06-04T10:08:52.115Z,75.57
2016-06-04T10:10:04.895Z,72.97
2016-06-04T10:10:52.164Z,72.97
2016-06-04T10:11:52.177Z,73.94
2016-06-04T10:12:52.206Z,73.84
2016-06-04T10:13:52.094Z,73.55
2016-06-04T10:14:52.231Z,75.23
2016-06-04T10:15:52.255Z,75.03
2016-06-04T10:16:52.261Z,73.88
2016-06-04T10:18:05.001Z,71.6
2016-06-04T10:18:52.272Z,72.27
2016-06-04T10:19:52.154Z,70.89
2016-06-04T10:20:52.128Z,71.18
2016-06-04T10:21:52.288Z,70.89
2016-06-04T10:22:52.308Z,71.18
2016-06-04T10:23:52.156Z,71.14
2016-06-04T10:24:58.583Z,71.28
2016-06-04T10:25:52.320Z,71.18
2016-06-04T10:26:52.323Z,70.89
2016-06-04T10:27:52.327Z,70.7
2016-06-04T10:28:52.970Z,71.28
2016-06-04T10:29:52.380Z,70.12
2016-06-04T10:30:55.366Z,70.31
2016-06-04T10:31:52.354Z,70.41
2016-06-04T10:32:52.357Z,70.12
2016-06-04T10:33:52.343Z,69.93
2016-06-04T10:34:52.362Z,70.37
2016-06-04T10:35:58.630Z,70.09
2016-06-04T10:36:53.789Z,70.86
2016-06-04T10:37:52.385Z,70.76
2016-06-04T10:38:52.404Z,70.76
2016-06-04T10:39:52.391Z,71.4
2016-06-04T10:41:05.143Z,72.65
2016-06-04T10:41:52.412Z,71.97
2016-06-04T10:42:52.446Z,72.45
2016-06-04T10:44:05.980Z,72.45
2016-06-04T10:44:52.436Z,72.26
2016-06-04T10:45:52.423Z,72.84
2016-06-04T10:46:52.425Z,72.36
2016-06-04T10:47:52.429Z,73.13
2016-06-04T10:48:52.447Z,72.45
2016-06-04T10:50:05.199Z,72.74
2016-06-04T10:50:52.452Z,72.84
2016-06-04T10:51:52.455Z,72.94
2016-06-04T10:52:52.458Z,73.8
2016-06-04T10:54:05.210Z,73.71
2016-06-04T10:54:52.478Z,73.8
2016-06-04T10:55:52.480Z,73.71
2016-06-04T10:56:52.483Z,73.61
2016-06-04T10:57:52.392Z,73.8
2016-06-04T10:58:52.504Z,72.97
2016-06-04T10:59:52.508Z,73.07
2016-06-04T11:00:52.525Z,72.39
2016-06-04T11:01:52.497Z,72.39
2016-06-04T11:02:52.516Z,72.11
2016-06-04T11:03:52.534Z,71.81
2016-06-04T11:04:52.536Z,71.81
2016-06-04T11:06:11.729Z,70.95
2016-06-04T11:06:52.541Z,70.47
2016-06-04T11:07:52.607Z,70.31
2016-06-04T11:08:52.547Z,69.73
2016-06-04T11:09:52.549Z,68
2016-06-04T11:11:05.287Z,67.9
2016-06-04T11:11:52.554Z,68.1
2016-06-04T11:12:52.590Z,68.68
2016-06-04T11:13:52.623Z,69.15
2016-06-04T11:14:52.579Z,69.93
2016-06-04T11:15:52.598Z,69.73
2016-06-04T11:17:05.335Z,69.45
2016-06-04T11:17:52.603Z,69.35
2016-06-04T11:18:52.590Z,70.12
2016-06-04T11:19:52.609Z,69.12
2016-06-04T11:20:52.611Z,69.89
2016-06-04T11:21:52.614Z,70.09
2016-06-04T11:22:52.631Z,69.7
2016-06-04T11:23:52.650Z,69.51
2016-06-04T11:24:52.653Z,68.77
2016-06-04T11:26:05.390Z,67.9
2016-06-04T11:26:52.674Z,67.61
2016-06-04T11:27:52.552Z,67.03
2016-06-04T11:28:52.711Z,66.55
2016-06-04T11:29:52.745Z,66.36
2016-06-04T11:30:52.653Z,66.46
2016-06-04T11:31:52.688Z,66.46
2016-06-04T11:33:11.911Z,65.72
2016-06-04T11:33:52.677Z,65.72
2016-06-04T11:34:52.680Z,65.43
2016-06-04T11:35:52.683Z,64.86
2016-06-04T11:36:52.685Z,64.08
2016-06-04T11:37:52.687Z,64.89
2016-06-04T11:38:52.707Z,64.98
2016-06-04T11:40:05.443Z,64.89
2016-06-04T11:40:52.712Z,65.08
2016-06-04T11:41:52.729Z,64.89
2016-06-04T11:42:52.763Z,64.89
2016-06-04T11:43:52.750Z,64.79
2016-06-04T11:44:52.769Z,65.01
2016-06-04T11:46:05.475Z,64.53
2016-06-04T11:46:52.742Z,64.34
2016-06-04T11:47:52.777Z,64.43
2016-06-04T11:48:52.765Z,63.95
2016-06-04T11:49:52.782Z,64.15
2016-06-04T11:50:52.785Z,63.85
2016-06-04T11:51:52.867Z,64.53
2016-06-04T11:52:52.775Z,65.08
2016-06-04T11:53:52.793Z,64.79
2016-06-04T11:54:52.796Z,64.4
2016-06-04T11:55:52.798Z,64.34
2016-06-04T11:56:52.832Z,63.67
2016-06-04T11:57:59.086Z,63.09
2016-06-04T11:58:52.822Z,62.22
2016-06-04T11:59:52.825Z,61.09
2016-06-04T12:01:12.033Z,60.61
2016-06-04T12:01:52.830Z,60.99
2016-06-04T12:02:52.864Z,61.19
2016-06-04T12:03:52.866Z,61.28
2016-06-04T12:05:05.589Z,61.09
2016-06-04T12:05:52.857Z,61.19
2016-06-04T12:06:52.875Z,60.44
2016-06-04T12:07:52.862Z,60.06
2016-06-04T12:08:52.881Z,60.13
2016-06-04T12:10:05.618Z,59.93
2016-06-04T12:10:52.902Z,59.67
2016-06-04T12:11:53.357Z,60.25
2016-06-04T12:12:52.907Z,60.64
2016-06-04T12:13:52.910Z,60.8
2016-06-04T12:15:05.662Z,60.71
2016-06-04T12:15:52.915Z,59.74
2016-06-04T12:16:52.949Z,59.74
2016-06-04T12:18:05.670Z,60.13
2016-06-04T12:18:52.970Z,60.03
2016-06-04T12:19:52.942Z,59.93
2016-06-04T12:21:05.679Z,60.35
2016-06-04T12:21:52.978Z,60.35
2016-06-04T12:22:52.965Z,59.86
2016-06-04T12:23:52.967Z,59.67
2016-06-04T12:24:53.001Z,59.02
2016-06-04T12:25:53.020Z,59.12
2016-06-04T12:26:52.991Z,60.16
2016-06-04T12:27:56.010Z,61.12
2016-06-04T12:28:53.091Z,61.47
2016-06-04T12:29:53.000Z,62.15
2016-06-04T12:30:53.033Z,63.12
2016-06-04T12:31:53.020Z,63.02
2016-06-04T12:32:53.039Z,61.86
2016-06-04T12:33:53.041Z,62.34
2016-06-04T12:34:53.044Z,61.93
2016-06-04T12:35:53.047Z,61.74
2016-06-04T12:36:53.159Z,61.74
2016-06-04T12:37:53.083Z,62.02
2016-06-04T12:38:53.071Z,62.41
2016-06-04T12:39:53.089Z,62.89
2016-06-04T12:40:53.091Z,63.09
2016-06-04T12:41:53.094Z,62.99
2016-06-04T12:42:53.504Z,61.64
2016-06-04T12:43:53.099Z,61.09
2016-06-04T12:44:53.102Z,61.77
2016-06-04T12:45:53.136Z,60.89
2016-06-04T12:46:53.124Z,60.41
2016-06-04T12:47:53.157Z,60.71
2016-06-04T12:48:53.129Z,60.61
2016-06-04T12:49:53.131Z,60.61
2016-06-04T12:50:53.150Z,61.12
2016-06-04T12:51:53.184Z,61.12
2016-06-04T12:52:53.155Z,60.83
2016-06-04T12:53:53.173Z,60.54
2016-06-04T12:54:53.176Z,60.09